Time;durP1;ratioP1;P1;durP2;ratioP2;P2;SDS_P1;SDS_P2;PMS_P1;PMS_P2;Temp;Humidity;BMP_temperature;BMP_pressure;BME280_temperature;BME280_humidity;BME280_pressure;Samples;Min_cycle;Max_cycle;Signal;HPM_P1;HPM_P2
2022/11/10 00:01:09;;;;;;;2.10;1.00;;;10.40;99.90;;;;;;5009523;28;20429;-84
2022/11/10 00:03:37;;;;;;;1.98;0.90;;;10.40;99.90;;;;;;5022040;28;20045;-84
2022/11/10 00:06:08;;;;;;;1.67;0.88;;;10.40;99.90;;;;;;5023134;28;20139;-84
2022/11/10 00:08:35;;;;;;;2.20;0.70;;;10.40;99.90;;;;;;5024809;28;20049;-83
2022/11/10 00:11:06;;;;;;;2.42;1.45;;;10.40;99.90;;;;;;5024263;28;20058;-84
2022/11/10 00:16:59;;;;;;;2.15;0.80;;;10.40;99.90;;;;;;5006103;28;20119;-84
2022/11/10 00:19:07;;;;;;;4.28;1.42;;;10.40;99.90;;;;;;5022512;28;20054;-84
2022/11/10 00:21:38;;;;;;;4.60;1.27;;;10.40;99.90;;;;;;5008921;28;20184;-84
2022/11/10 00:24:05;;;;;;;1.92;1.08;;;10.40;99.90;;;;;;5022976;28;20575;-84
2022/11/10 00:26:32;;;;;;;3.63;1.65;;;10.40;99.90;;;;;;5006072;28;20088;-84
2022/11/10 00:29:00;;;;;;;2.95;0.90;;;10.40;99.90;;;;;;5006390;28;20149;-84
2022/11/10 00:31:27;;;;;;;3.47;1.15;;;10.40;99.90;;;;;;5021139;28;20583;-84
2022/11/10 00:33:56;;;;;;;1.05;0.60;;;10.40;99.90;;;;;;5013760;28;20446;-84
2022/11/10 00:36:23;;;;;;;2.17;0.82;;;10.50;99.90;;;;;;5005807;28;20071;-83
2022/11/10 00:38:50;;;;;;;1.75;0.88;;;10.50;99.90;;;;;;5022410;28;20060;-84
2022/11/10 00:41:17;;;;;;;1.25;0.60;;;10.40;99.90;;;;;;5025872;28;20451;-83
2022/11/10 00:43:44;;;;;;;1.83;0.70;;;10.40;99.90;;;;;;5006035;28;20064;-84
2022/11/10 00:46:11;;;;;;;3.53;1.23;;;10.50;99.90;;;;;;5004570;28;20061;-83
2022/11/10 00:48:38;;;;;;;1.88;0.82;;;10.40;99.90;;;;;;5005393;28;20160;-83
2022/11/10 00:51:05;;;;;;;1.35;0.60;;;10.40;99.90;;;;;;5023656;28;20416;-83
2022/11/10 00:53:32;;;;;;;1.45;0.63;;;10.40;99.90;;;;;;5008603;28;20230;-84
2022/11/10 00:55:59;;;;;;;2.20;1.00;;;10.40;99.90;;;;;;5008745;28;20059;-84
2022/11/10 00:58:27;;;;;;;2.20;0.90;;;10.50;99.90;;;;;;5041660;28;20051;-84
2022/11/10 01:01:03;;;;;;;2.65;1.00;;;10.50;99.90;;;;;;5041546;28;20125;-84
2022/11/10 01:03:30;;;;;;;2.30;0.90;;;10.50;99.90;;;;;;5023774;28;20053;-84
2022/11/10 01:05:58;;;;;;;1.55;0.88;;;10.50;99.90;;;;;;5024994;28;20063;-84
2022/11/10 01:08:25;;;;;;;1.88;0.90;;;10.50;99.90;;;;;;5009672;28;20045;-84
2022/11/10 01:10:52;;;;;;;1.25;0.60;;;10.60;99.90;;;;;;5028393;28;20045;-83
2022/11/10 01:13:19;;;;;;;0.93;0.52;;;10.60;99.90;;;;;;5009076;28;20053;-84
2022/11/10 01:15:47;;;;;;;2.30;0.90;;;10.60;99.90;;;;;;5011293;28;20045;-84
2022/11/10 01:18:14;;;;;;;4.28;1.50;;;10.60;99.90;;;;;;5026803;28;20056;-83
2022/11/10 01:20:41;;;;;;;3.83;1.13;;;10.60;99.90;;;;;;5042956;28;20159;-84
2022/11/10 01:23:09;;;;;;;3.25;1.17;;;10.60;99.90;;;;;;5008103;28;20064;-84
2022/11/10 01:25:36;;;;;;;2.67;0.70;;;10.60;99.90;;;;;;4989336;28;20052;-84
2022/11/10 01:28:03;;;;;;;2.92;0.88;;;10.60;99.90;;;;;;5006885;28;20060;-83
2022/11/10 01:30:30;;;;;;;1.83;0.68;;;10.50;99.90;;;;;;5024612;28;20053;-83
2022/11/10 01:32:57;;;;;;;1.33;0.60;;;10.50;99.90;;;;;;5023133;28;20469;-83
2022/11/10 01:35:24;;;;;;;1.85;0.70;;;10.50;99.90;;;;;;5027046;28;20085;-84
2022/11/10 01:37:53;;;;;;;3.38;1.23;;;10.50;99.90;;;;;;5027885;28;20070;-84
2022/11/10 01:40:20;;;;;;;1.00;0.57;;;10.50;99.90;;;;;;5027586;28;20053;-83
2022/11/10 01:42:56;;;;;;;1.70;0.90;;;10.50;99.90;;;;;;5009259;28;20072;-83
2022/11/10 01:45:23;;;;;;;1.95;0.85;;;10.50;99.90;;;;;;5027149;28;20059;-83
2022/11/10 01:47:55;;;;;;;1.60;0.93;;;10.50;99.90;;;;;;5042926;28;20137;-83
2022/11/10 01:50:23;;;;;;;1.83;1.05;;;10.50;99.90;;;;;;5011198;28;20484;-83
2022/11/10 01:52:51;;;;;;;1.23;0.50;;;10.50;99.90;;;;;;5009345;28;20160;-83
2022/11/10 01:55:18;;;;;;;1.58;0.60;;;10.50;99.90;;;;;;5007682;28;20053;-83
2022/11/10 01:57:45;;;;;;;2.05;0.95;;;10.50;99.90;;;;;;5023779;28;20046;-84
2022/11/10 02:00:12;;;;;;;1.20;0.50;;;10.50;99.90;;;;;;5023376;28;20450;-83
2022/11/10 02:02:43;;;;;;;1.90;0.60;;;10.50;99.90;;;;;;5022912;28;20049;-83
2022/11/10 02:05:10;;;;;;;2.15;0.60;;;10.50;99.90;;;;;;5043399;28;20052;-83
2022/11/10 02:07:37;;;;;;;1.08;0.45;;;10.50;99.90;;;;;;5026408;28;20234;-83
2022/11/10 02:10:12;;;;;;;1.45;0.82;;;10.50;99.90;;;;;;5027241;28;20067;-83
2022/11/10 02:12:39;;;;;;;1.55;0.60;;;10.50;99.90;;;;;;5024217;28;20045;-84
2022/11/10 02:15:08;;;;;;;2.33;1.10;;;10.50;99.90;;;;;;5044050;28;20217;-84
2022/11/10 02:17:34;;;;;;;2.83;0.80;;;10.50;99.90;;;;;;5009607;28;20049;-84
2022/11/10 02:20:05;;;;;;;0.70;0.50;;;10.50;99.90;;;;;;5043831;28;20052;-84
2022/11/10 02:22:32;;;;;;;1.58;0.60;;;10.50;99.90;;;;;;5007446;28;20112;-84
2022/11/10 02:24:59;;;;;;;1.85;0.60;;;10.50;99.90;;;;;;5045352;28;20203;-84
2022/11/10 02:27:26;;;;;;;0.50;0.50;;;10.50;99.90;;;;;;5026978;28;20137;-84
2022/11/10 02:29:54;;;;;;;2.10;0.52;;;10.50;99.90;;;;;;5010599;28;20059;-84
2022/11/10 02:32:21;;;;;;;1.88;0.60;;;10.50;99.90;;;;;;5028697;28;20079;-83
2022/11/10 02:34:48;;;;;;;1.40;0.52;;;10.50;99.90;;;;;;5027003;28;20143;-84
2022/11/10 02:37:15;;;;;;;1.48;0.65;;;10.50;99.90;;;;;;5030841;28;20053;-82
2022/11/10 02:39:42;;;;;;;1.67;0.68;;;10.50;99.90;;;;;;5032896;28;20485;-82
2022/11/10 02:42:09;;;;;;;1.95;0.57;;;10.50;99.90;;;;;;5049180;28;20147;-82
2022/11/10 02:44:37;;;;;;;2.33;0.60;;;10.50;99.90;;;;;;5049474;28;20045;-82
2022/11/10 02:47:03;;;;;;;3.50;0.60;;;10.60;99.90;;;;;;5046145;28;20049;-82
2022/11/10 02:49:30;;;;;;;3.80;1.05;;;10.60;99.90;;;;;;5031085;28;20065;-82
2022/11/10 02:51:57;;;;;;;3.55;0.75;;;10.60;99.90;;;;;;5047721;28;20057;-82
2022/11/10 02:54:24;;;;;;;2.70;0.77;;;10.60;99.90;;;;;;5011691;28;20673;-83
2022/11/10 02:56:51;;;;;;;1.25;0.50;;;10.60;99.90;;;;;;5028048;28;20495;-82
2022/11/10 02:59:18;;;;;;;1.08;0.43;;;10.60;99.90;;;;;;5011427;28;20054;-83
2022/11/10 03:01:44;;;;;;;0.98;0.30;;;10.60;99.90;;;;;;5009238;28;20136;-83
2022/11/10 03:04:12;;;;;;;1.17;0.70;;;10.60;99.90;;;;;;5038295;28;20052;-81
2022/11/10 03:06:39;;;;;;;1.10;0.63;;;10.60;99.90;;;;;;5030197;28;20175;-81
2022/11/10 03:09:07;;;;;;;2.70;0.85;;;10.60;99.90;;;;;;5046691;28;20465;-83
2022/11/10 03:11:34;;;;;;;1.17;0.68;;;10.50;99.90;;;;;;5031450;28;20052;-82
2022/11/10 03:14:01;;;;;;;2.53;0.80;;;10.50;99.90;;;;;;5011169;28;20083;-82
2022/11/10 03:16:28;;;;;;;1.75;1.08;;;10.50;99.90;;;;;;5028453;28;20096;-81
2022/11/10 03:18:56;;;;;;;0.95;0.40;;;10.50;99.90;;;;;;5028014;28;20041;-81
2022/11/10 03:21:23;;;;;;;0.95;0.60;;;10.50;99.90;;;;;;5027949;28;20389;-80
2022/11/10 03:23:50;;;;;;;1.85;0.60;;;10.50;99.90;;;;;;5037325;28;20481;-81
2022/11/10 03:26:19;;;;;;;1.63;0.50;;;10.50;99.90;;;;;;5048249;28;20041;-81
2022/11/10 03:28:45;;;;;;;2.45;0.60;;;10.50;99.90;;;;;;5048197;28;20065;-81
2022/11/10 03:31:14;;;;;;;3.92;0.80;;;10.50;99.90;;;;;;5047246;28;20060;-82
2022/11/10 03:33:41;;;;;;;1.30;0.63;;;10.50;99.90;;;;;;5026201;28;20137;-82
2022/11/10 03:36:08;;;;;;;2.25;0.77;;;10.50;99.90;;;;;;5010007;28;20045;-82
2022/11/10 03:38:35;;;;;;;1.33;0.65;;;10.50;99.90;;;;;;5028578;28;20058;-82
2022/11/10 03:41:02;;;;;;;0.80;0.50;;;10.50;99.90;;;;;;5043497;28;20045;-82
2022/11/10 03:43:45;;;;;;;1.00;0.40;;;10.50;99.90;;;;;;5034644;28;20525;-82
2022/11/10 03:46:12;;;;;;;0.70;0.43;;;10.50;99.90;;;;;;5047208;28;20051;-83
2022/11/10 03:48:39;;;;;;;0.73;0.35;;;10.50;99.90;;;;;;5046041;28;20049;-82
2022/11/10 03:51:07;;;;;;;1.33;0.50;;;10.50;99.90;;;;;;5029292;28;20061;-83
2022/11/10 03:53:33;;;;;;;0.88;0.50;;;10.50;99.90;;;;;;5029959;28;20045;-82
2022/11/10 03:56:02;;;;;;;1.30;0.40;;;10.40;99.90;;;;;;5030221;28;20080;-81
2022/11/10 03:58:30;;;;;;;1.45;0.40;;;10.40;99.90;;;;;;5030562;28;20084;-81
2022/11/10 04:00:57;;;;;;;0.73;0.38;;;10.40;99.90;;;;;;5029921;28;20048;-81
2022/11/10 04:03:24;;;;;;;0.63;0.43;;;10.40;99.90;;;;;;5028864;28;20412;-81
2022/11/10 04:16:53;;;;;;;1.58;0.50;;;10.30;99.90;;;;;;5045847;28;20052;-81
2022/11/10 04:19:20;;;;;;;2.15;0.60;;;10.30;99.90;;;;;;5028417;28;20049;-81
2022/11/10 04:21:47;;;;;;;1.33;0.50;;;10.30;99.90;;;;;;5012691;28;20045;-81
2022/11/10 04:24:14;;;;;;;3.30;0.95;;;10.40;99.90;;;;;;5047295;28;20849;-81
2022/11/10 04:26:41;;;;;;;1.92;0.80;;;10.50;99.90;;;;;;5029648;28;20049;-81
2022/11/10 04:29:09;;;;;;;3.70;0.80;;;10.60;99.90;;;;;;5012919;28;20087;-81
2022/11/10 04:31:40;;;;;;;2.20;0.82;;;10.60;99.90;;;;;;5028785;28;20051;-81
2022/11/10 04:34:11;;;;;;;1.30;0.50;;;10.70;99.90;;;;;;5028527;28;20055;-81
2022/11/10 04:36:39;;;;;;;2.65;0.95;;;10.70;99.90;;;;;;5028774;28;20095;-81
2022/11/10 04:39:06;;;;;;;2.67;1.00;;;10.80;99.90;;;;;;5013633;28;20530;-81
2022/11/10 04:41:33;;;;;;;1.63;0.60;;;10.80;99.90;;;;;;5029258;28;20072;-82
2022/11/10 04:44:01;;;;;;;1.88;0.80;;;10.80;99.90;;;;;;5029049;28;20055;-82
2022/11/10 04:46:38;;;;;;;4.05;1.00;;;10.80;99.90;;;;;;5028834;28;20682;-82
2022/11/10 04:49:05;;;;;;;2.28;0.65;;;10.90;99.90;;;;;;5028448;28;20132;-81
2022/11/10 04:51:34;;;;;;;3.35;1.00;;;10.90;99.90;;;;;;5011989;28;20053;-81
2022/11/10 04:54:01;;;;;;;1.63;0.50;;;10.90;99.90;;;;;;5025752;28;20053;-82
2022/11/10 04:56:28;;;;;;;3.28;0.95;;;10.90;99.90;;;;;;5024940;28;20056;-81
2022/11/10 04:58:55;;;;;;;2.42;0.60;;;10.90;99.90;;;;;;5008058;28;20058;-81
2022/11/10 05:01:25;;;;;;;0.93;0.57;;;11.00;99.90;;;;;;5025448;28;20785;-82
2022/11/10 05:03:52;;;;;;;1.10;0.50;;;10.90;99.90;;;;;;5011868;28;20107;-81
2022/11/10 05:06:19;;;;;;;1.80;0.80;;;10.90;99.90;;;;;;5024721;28;20090;-83
2022/11/10 05:08:46;;;;;;;1.25;0.63;;;10.90;99.90;;;;;;5041702;28;20065;-82
2022/11/10 05:11:14;;;;;;;1.05;0.85;;;10.90;99.90;;;;;;5027007;28;20144;-81
2022/11/10 05:13:41;;;;;;;2.70;0.50;;;10.90;99.90;;;;;;5032245;28;20060;-81
2022/11/10 05:16:10;;;;;;;2.20;0.55;;;10.90;99.90;;;;;;5012023;28;20049;-82
2022/11/10 05:18:37;;;;;;;1.63;0.50;;;11.00;99.90;;;;;;5044343;28;20132;-83
2022/11/10 05:21:04;;;;;;;2.10;0.70;;;11.00;99.90;;;;;;5027261;28;20049;-82
2022/11/10 05:23:36;;;;;;;2.15;0.77;;;11.00;99.90;;;;;;5017614;28;20143;-83
2022/11/10 05:26:13;;;;;;;2.20;0.63;;;11.00;99.90;;;;;;5026424;28;20079;-83
2022/11/10 05:28:40;;;;;;;1.13;0.40;;;11.10;99.90;;;;;;5028710;28;20050;-83
2022/11/10 05:31:08;;;;;;;1.05;0.50;;;11.10;99.90;;;;;;5022882;28;20119;-83
2022/11/10 05:33:35;;;;;;;1.33;0.50;;;11.10;99.90;;;;;;5003275;28;20045;-84
2022/11/10 05:36:02;;;;;;;1.90;0.43;;;11.10;99.90;;;;;;5024954;28;20049;-83
2022/11/10 05:38:29;;;;;;;0.38;0.38;;;11.10;99.90;;;;;;5023358;28;20144;-81
2022/11/10 05:40:59;;;;;;;1.73;0.50;;;11.00;99.90;;;;;;5017453;28;20052;-82
2022/11/10 05:43:25;;;;;;;2.70;0.88;;;11.00;99.90;;;;;;5025279;28;20120;-82
2022/11/10 05:45:52;;;;;;;3.17;0.90;;;11.10;99.90;;;;;;5007674;28;20069;-82
2022/11/10 05:48:19;;;;;;;2.00;0.75;;;11.10;99.90;;;;;;5007876;28;20353;-83
2022/11/10 05:50:46;;;;;;;0.47;0.25;;;11.10;99.90;;;;;;5039527;28;20408;-82
2022/11/10 05:53:13;;;;;;;1.90;0.40;;;11.10;99.90;;;;;;5012390;28;20469;-82
2022/11/10 05:55:40;;;;;;;3.20;0.60;;;11.10;99.90;;;;;;5025733;28;20048;-82
2022/11/10 05:58:08;;;;;;;1.38;0.40;;;11.10;99.90;;;;;;5009134;28;20056;-83
2022/11/10 06:00:35;;;;;;;1.63;0.60;;;11.10;99.90;;;;;;5026471;28;20683;-84
2022/11/10 06:03:02;;;;;;;1.75;0.73;;;11.00;99.90;;;;;;5001766;28;20055;-83
2022/11/10 06:05:30;;;;;;;1.13;0.30;;;11.00;99.90;;;;;;5022075;28;20067;-82
2022/11/10 06:07:58;;;;;;;1.00;0.50;;;11.00;99.90;;;;;;5014065;28;20136;-82
2022/11/10 06:10:25;;;;;;;1.15;0.60;;;11.00;99.90;;;;;;5015796;28;20111;-82
2022/11/10 06:12:52;;;;;;;2.25;0.70;;;11.00;99.90;;;;;;5015772;28;20052;-82
2022/11/10 06:15:19;;;;;;;1.55;0.60;;;11.10;99.90;;;;;;5027246;28;20322;-82
2022/11/10 06:17:46;;;;;;;1.30;0.50;;;11.10;99.90;;;;;;5029904;28;20153;-82
2022/11/10 06:20:13;;;;;;;2.80;0.50;;;11.10;99.90;;;;;;5000114;28;20510;-82
2022/11/10 06:22:40;;;;;;;0.98;0.50;;;11.10;99.90;;;;;;5031539;28;20538;-83
2022/11/10 06:25:08;;;;;;;4.03;1.02;;;11.20;99.90;;;;;;5015290;28;20042;-83
2022/11/10 06:27:34;;;;;;;5.07;1.25;;;11.20;99.90;;;;;;5010969;28;20064;-82
2022/11/10 06:30:02;;;;;;;2.65;1.08;;;11.30;99.90;;;;;;5018701;28;20050;-81
2022/11/10 06:32:29;;;;;;;1.45;0.60;;;11.40;99.90;;;;;;5015625;28;20553;-83
2022/11/10 06:34:56;;;;;;;1.85;1.00;;;11.50;99.90;;;;;;5009946;28;20087;-83
2022/11/10 06:37:26;;;;;;;2.72;1.10;;;11.50;99.90;;;;;;5026429;28;20064;-82
2022/11/10 06:39:53;;;;;;;0.95;0.50;;;11.60;99.90;;;;;;5024257;28;20723;-83
2022/11/10 06:42:21;;;;;;;2.83;1.00;;;11.60;99.90;;;;;;5005181;28;20470;-85
2022/11/10 06:44:49;;;;;;;1.80;0.57;;;11.60;99.90;;;;;;5010319;28;20422;-81
2022/11/10 06:47:16;;;;;;;3.58;0.95;;;11.60;99.90;;;;;;5029324;28;20045;-82
2022/11/10 06:49:44;;;;;;;1.52;0.70;;;11.60;99.90;;;;;;5001583;28;20453;-83
2022/11/10 06:52:10;;;;;;;3.75;0.80;;;11.60;99.90;;;;;;5025932;28;20485;-83
2022/11/10 06:54:37;;;;;;;2.47;0.70;;;11.50;99.90;;;;;;5009523;28;20207;-83
2022/11/10 06:57:04;;;;;;;1.52;0.60;;;11.60;99.90;;;;;;5019005;28;20052;-81
2022/11/10 06:59:33;;;;;;;2.50;0.70;;;11.60;99.90;;;;;;5007362;28;20085;-83
2022/11/10 07:02:00;;;;;;;2.47;0.98;;;11.60;99.90;;;;;;5004967;28;20057;-80
2022/11/10 07:04:27;;;;;;;1.35;0.60;;;11.70;99.90;;;;;;5031565;28;20039;-82
2022/11/10 07:06:55;;;;;;;1.50;0.60;;;11.70;99.90;;;;;;5011076;28;20413;-81
2022/11/10 07:09:21;;;;;;;0.98;0.70;;;11.80;99.90;;;;;;5023755;28;20459;-79
2022/11/10 07:11:49;;;;;;;2.85;1.05;;;11.80;99.90;;;;;;5008976;28;20057;-82
2022/11/10 07:14:15;;;;;;;1.30;0.80;;;11.90;99.90;;;;;;5021040;28;20045;-82
2022/11/10 07:16:43;;;;;;;2.30;0.80;;;12.00;99.90;;;;;;5022938;28;20449;-82
2022/11/10 07:19:10;;;;;;;3.45;0.70;;;12.00;99.90;;;;;;5041552;28;20067;-82
2022/11/10 07:21:37;;;;;;;1.88;0.70;;;12.00;99.90;;;;;;5008615;28;20080;-82
2022/11/10 07:24:05;;;;;;;1.83;0.80;;;12.10;99.90;;;;;;5008685;28;20123;-82
2022/11/10 07:26:32;;;;;;;2.25;0.52;;;12.20;99.90;;;;;;5026576;28;20048;-82
2022/11/10 07:28:59;;;;;;;1.75;0.75;;;12.20;99.90;;;;;;5028300;28;20047;-82
2022/11/10 07:31:27;;;;;;;2.17;0.88;;;12.30;99.90;;;;;;5011820;28;20079;-82
2022/11/10 07:33:54;;;;;;;2.35;0.98;;;12.30;99.90;;;;;;5023817;28;20080;-82
2022/11/10 07:36:21;;;;;;;1.50;0.70;;;12.40;99.90;;;;;;5006014;28;20111;-82
2022/11/10 07:38:49;;;;;;;2.72;0.60;;;12.40;99.90;;;;;;5008164;28;20053;-82
2022/11/10 07:41:16;;;;;;;2.92;1.13;;;12.50;99.90;;;;;;5022660;28;20045;-82
2022/11/10 07:43:43;;;;;;;1.75;0.82;;;12.50;99.90;;;;;;5025600;28;20156;-82
2022/11/10 07:46:10;;;;;;;2.65;0.90;;;12.60;99.90;;;;;;5042467;28;20055;-82
2022/11/10 07:48:37;;;;;;;1.10;0.50;;;12.60;99.90;;;;;;5026019;28;20444;-82
2022/11/10 07:51:07;;;;;;;1.42;0.93;;;12.60;99.90;;;;;;5026919;28;20272;-82
2022/11/10 07:53:34;;;;;;;1.95;0.65;;;12.70;99.90;;;;;;5033042;28;20088;-82
2022/11/10 07:56:01;;;;;;;1.42;0.80;;;12.70;99.90;;;;;;5029621;28;20053;-82
2022/11/10 07:58:31;;;;;;;1.60;0.80;;;12.70;99.90;;;;;;5046433;28;20053;-82
2022/11/10 08:00:58;;;;;;;2.95;1.00;;;12.80;99.90;;;;;;5028592;28;20138;-82
2022/11/10 08:03:25;;;;;;;2.45;0.77;;;12.80;99.90;;;;;;5024452;28;20085;-81
2022/11/10 08:05:52;;;;;;;2.40;0.90;;;12.90;99.90;;;;;;5025971;28;20057;-82
2022/11/10 08:08:19;;;;;;;3.00;0.90;;;13.00;99.90;;;;;;5044775;28;20465;-82
2022/11/10 08:10:46;;;;;;;2.95;0.98;;;13.00;99.90;;;;;;5013275;28;20048;-82
2022/11/10 08:13:13;;;;;;;2.33;1.23;;;13.10;99.90;;;;;;5010539;28;20076;-82
2022/11/10 08:15:40;;;;;;;3.97;1.45;;;13.20;99.90;;;;;;5029115;28;20496;-82
2022/11/10 08:18:21;;;;;;;3.20;0.90;;;13.20;99.90;;;;;;5011326;28;20143;-83
2022/11/10 08:20:48;;;;;;;1.65;0.75;;;13.30;99.90;;;;;;5029309;28;20068;-82
2022/11/10 08:23:16;;;;;;;2.63;0.93;;;13.30;99.90;;;;;;5025978;28;20143;-82
2022/11/10 08:25:45;;;;;;;2.45;0.90;;;13.30;99.90;;;;;;5028732;28;20060;-82
2022/11/10 08:28:16;;;;;;;1.25;0.57;;;13.30;99.90;;;;;;5011342;28;20237;-82
2022/11/10 08:30:44;;;;;;;1.35;0.65;;;13.40;99.90;;;;;;5026172;28;20061;-82
2022/11/10 08:33:12;;;;;;;3.28;1.17;;;13.40;99.90;;;;;;5023665;28;20218;-82
2022/11/10 08:35:43;;;;;;;4.40;1.15;;;13.40;99.90;;;;;;5026366;28;20100;-82
2022/11/10 08:38:11;;;;;;;4.63;1.33;;;13.30;99.90;;;;;;5008686;28;20277;-82
2022/11/10 08:40:38;;;;;;;4.63;1.38;;;13.40;99.90;;;;;;5026035;28;20088;-82
2022/11/10 08:43:06;;;;;;;2.30;1.05;;;13.40;99.90;;;;;;5025688;28;20145;-82
2022/11/10 08:45:37;;;;;;;4.18;1.27;;;13.50;99.90;;;;;;5010935;28;20048;-82
2022/11/10 08:48:17;;;;;;;2.35;0.60;;;13.40;99.90;;;;;;5007784;28;20048;-81
2022/11/10 08:50:44;;;;;;;1.35;0.60;;;13.50;99.90;;;;;;5025750;28;20095;-82
2022/11/10 08:53:22;;;;;;;1.65;0.57;;;13.40;99.90;;;;;;5005621;28;20053;-81
2022/11/10 08:55:52;;;;;;;1.17;0.47;;;13.50;99.90;;;;;;5010035;28;20118;-82
2022/11/10 08:58:20;;;;;;;2.97;1.10;;;13.50;99.90;;;;;;5009776;28;20110;-82
2022/11/10 09:00:49;;;;;;;2.47;0.80;;;13.50;99.90;;;;;;5009320;28;20149;-82
2022/11/10 09:03:20;;;;;;;1.63;0.70;;;13.50;99.90;;;;;;5004656;28;20073;-81
2022/11/10 09:05:51;;;;;;;1.23;0.50;;;13.40;99.90;;;;;;5009175;28;20416;-82
2022/11/10 09:08:24;;;;;;;3.25;0.82;;;13.40;99.90;;;;;;5041708;28;20404;-82
2022/11/10 09:10:52;;;;;;;2.53;1.02;;;13.50;99.90;;;;;;5024719;28;20152;-81
2022/11/10 09:13:22;;;;;;;2.83;1.00;;;13.50;99.90;;;;;;5040876;28;20049;-82
2022/11/10 09:15:59;;;;;;;2.60;0.60;;;13.50;99.90;;;;;;5025534;28;20160;-81
2022/11/10 09:18:26;;;;;;;3.08;0.95;;;13.60;99.90;;;;;;5024418;28;20052;-82
2022/11/10 09:20:53;;;;;;;3.33;0.88;;;13.70;99.90;;;;;;5024647;28;20049;-82
2022/11/10 09:23:23;;;;;;;4.47;1.08;;;13.70;99.90;;;;;;5005547;28;20049;-82
2022/11/10 09:25:52;;;;;;;3.65;0.85;;;13.70;99.90;;;;;;5025025;28;20064;-82
2022/11/10 09:28:19;;;;;;;1.35;0.70;;;13.80;99.90;;;;;;5007491;28;20068;-82
2022/11/10 09:30:47;;;;;;;2.63;1.10;;;13.90;99.90;;;;;;5007735;28;20416;-82
2022/11/10 09:33:14;;;;;;;3.72;0.90;;;13.90;99.90;;;;;;5019538;28;20057;-82
2022/11/10 09:35:43;;;;;;;2.40;0.70;;;14.00;99.90;;;;;;5008506;28;20394;-82
2022/11/10 09:38:10;;;;;;;1.45;0.82;;;14.00;99.90;;;;;;5007713;28;20127;-82
2022/11/10 09:40:56;;;;;;;2.45;1.13;;;14.00;99.90;;;;;;5000399;28;20053;-82
2022/11/10 09:43:31;;;;;;;2.88;1.40;;;14.00;99.90;;;;;;5032291;28;20571;-81
2022/11/10 09:45:59;;;;;;;4.43;1.52;;;14.00;99.90;;;;;;5014695;28;20491;-81
2022/11/10 09:48:28;;;;;;;3.83;1.38;;;14.00;99.90;;;;;;4999827;28;20420;-83
2022/11/10 09:51:06;;;;;;;3.63;1.33;;;14.00;99.90;;;;;;5003545;28;20057;-79
2022/11/10 09:54:24;;;;;;;3.78;1.25;;;14.00;99.90;;;;;;5014607;28;20064;-81
2022/11/10 09:56:52;;;;;;;2.72;1.10;;;14.10;99.90;;;;;;5033828;28;20140;-79
2022/11/10 09:59:25;;;;;;;5.28;1.88;;;14.10;99.90;;;;;;5021402;28;20065;-80
2022/11/10 10:01:59;;;;;;;;;;;14.10;99.90;;;;;;5004966;28;20074;-80
2022/11/10 10:04:45;;;;;;;3.65;1.35;;;14.10;99.90;;;;;;5036065;28;19925;-80
2022/11/10 10:07:29;;;;;;;2.95;0.98;;;14.20;99.90;;;;;;5034942;28;20335;-81
2022/11/10 10:10:03;;;;;;;2.42;1.27;;;14.20;99.90;;;;;;5038135;28;20128;-80
2022/11/10 10:12:52;;;;;;;2.47;0.85;;;14.30;99.90;;;;;;5018082;28;20049;-81
2022/11/10 10:15:31;;;;;;;3.10;1.30;;;14.30;99.90;;;;;;5035223;28;20182;-81
2022/11/10 10:18:00;;;;;;;3.75;1.20;;;14.40;99.90;;;;;;5037754;28;20083;-80
2022/11/10 10:21:02;;;;;;;3.15;1.20;;;14.50;99.90;;;;;;5037467;28;20074;-80
2022/11/10 10:23:33;;;;;;;4.30;1.70;;;14.60;99.90;;;;;;5006344;28;20056;-80
2022/11/10 10:26:28;;;;;;;3.28;1.00;;;14.60;99.90;;;;;;5037656;28;20053;-79
2022/11/10 10:28:56;;;;;;;2.17;0.90;;;14.60;99.90;;;;;;5021028;28;20316;-79
2022/11/10 10:31:29;;;;;;;4.75;0.90;;;14.70;99.90;;;;;;5020114;28;20049;-80
2022/11/10 10:33:56;;;;;;;3.70;0.95;;;14.70;99.90;;;;;;5000662;28;20061;-80
2022/11/10 10:36:25;;;;;;;3.03;0.80;;;14.80;99.90;;;;;;5016715;28;20523;-80
2022/11/10 10:39:00;;;;;;;3.70;1.55;;;14.90;99.90;;;;;;5017729;28;20045;-80
2022/11/10 10:41:28;;;;;;;4.43;1.08;;;14.90;99.90;;;;;;5001178;28;20053;-80
2022/11/10 10:44:00;;;;;;;2.50;0.90;;;15.00;99.90;;;;;;5032814;28;20056;-80
2022/11/10 10:46:28;;;;;;;2.45;1.10;;;15.00;99.90;;;;;;5021767;28;20513;-80
2022/11/10 10:49:20;;;;;;;2.08;0.98;;;15.00;99.90;;;;;;5000802;28;20571;-80
2022/11/10 10:52:01;;;;;;;;;;;15.20;99.90;;;;;;5033318;28;20077;-79
2022/11/10 10:54:35;;;;;;;2.47;1.10;;;15.30;99.90;;;;;;5027025;28;19925;-79
2022/11/10 10:57:29;;;;;;;3.70;1.38;;;15.40;99.90;;;;;;5024261;28;20622;-80
2022/11/10 11:00:19;;;;;;;4.13;1.10;;;15.40;99.90;;;;;;5041561;28;20049;-79
2022/11/10 11:03:06;;;;;;;3.30;1.30;;;15.50;99.90;;;;;;5039665;28;20060;-79
2022/11/10 11:05:32;;;;;;;3.95;1.15;;;15.50;99.90;;;;;;5004812;28;20057;-80
2022/11/10 11:08:00;;;;;;;5.07;1.40;;;15.50;99.90;;;;;;4985711;28;20046;-80
2022/11/10 11:10:32;;;;;;;3.45;0.88;;;15.40;99.90;;;;;;5039753;28;20159;-80
2022/11/10 11:13:28;;;;;;;4.28;1.20;;;15.50;99.90;;;;;;5004772;28;20053;-80
2022/11/10 11:15:57;;;;;;;3.83;1.20;;;15.50;99.90;;;;;;5004253;28;20426;-80
2022/11/10 11:18:24;;;;;;;3.33;1.10;;;15.40;99.90;;;;;;5021342;28;20135;-81
2022/11/10 11:21:11;;;;;;;3.65;1.27;;;15.50;99.90;;;;;;5023951;28;20057;-81
2022/11/10 11:23:59;;;;;;;2.53;1.10;;;15.40;99.90;;;;;;5037877;28;20055;-81
2022/11/10 11:26:45;;;;;;;2.03;0.82;;;15.50;99.90;;;;;;5024237;28;20053;-81
2022/11/10 11:29:40;;;;;;;1.58;0.80;;;15.70;99.90;;;;;;5040245;28;20067;-80
2022/11/10 11:32:28;;;;;;;5.50;1.30;;;15.90;99.90;;;;;;5008257;28;20481;-80
2022/11/10 11:35:00;;;;;;;3.28;1.20;;;15.90;99.90;;;;;;5039703;28;20052;-82
2022/11/10 11:37:43;;;;;;;4.80;1.80;;;15.90;99.90;;;;;;5041727;28;20337;-79
2022/11/10 11:40:13;;;;;;;5.03;1.02;;;16.00;99.90;;;;;;5021751;28;20057;-81
2022/11/10 11:43:24;;;;;;;3.50;1.25;;;16.10;99.90;;;;;;5021862;28;20148;-81
2022/11/10 11:46:06;;;;;;;3.13;1.10;;;16.00;99.90;;;;;;5023203;28;20403;-80
2022/11/10 11:48:48;;;;;;;2.90;1.40;;;16.10;99.90;;;;;;5034312;28;20122;-80
2022/11/10 11:51:23;;;;;;;3.13;1.00;;;16.00;99.90;;;;;;5020182;28;20063;-81
2022/11/10 11:54:21;;;;;;;2.95;1.05;;;16.00;99.90;;;;;;5037222;28;20052;-81
2022/11/10 11:56:48;;;;;;;3.13;1.27;;;16.00;99.90;;;;;;5038492;28;20067;-80
2022/11/10 11:59:48;;;;;;;3.58;1.23;;;15.90;99.90;;;;;;4999972;28;20060;-81
2022/11/10 12:02:40;;;;;;;3.72;1.20;;;15.90;99.90;;;;;;5017742;28;20240;-81
2022/11/10 12:05:11;;;;;;;3.80;1.33;;;15.70;99.90;;;;;;5037373;28;20122;-80
2022/11/10 12:07:56;;;;;;;3.40;1.02;;;15.70;99.90;;;;;;5033050;28;20081;-80
2022/11/10 12:10:41;;;;;;;1.70;1.02;;;15.60;99.90;;;;;;5037154;28;20396;-80
2022/11/10 12:13:33;;;;;;;1.88;0.70;;;15.60;99.90;;;;;;5037424;28;20075;-80
2022/11/10 12:16:22;;;;;;;1.95;1.00;;;15.60;99.90;;;;;;5037205;28;20053;-80
2022/11/10 12:19:27;;;;;;;1.85;0.88;;;15.60;99.90;;;;;;5021037;28;20128;-79
2022/11/10 12:22:01;;;;;;;2.58;0.73;;;15.60;99.90;;;;;;5033439;28;20091;-79
2022/11/10 12:24:44;;;;;;;1.52;0.80;;;15.60;99.90;;;;;;5035475;28;20053;-80
2022/11/10 12:27:18;;;;;;;1.90;0.90;;;15.60;99.90;;;;;;5019717;28;20049;-80
2022/11/10 12:29:47;;;;;;;3.17;0.98;;;15.60;99.90;;;;;;5036540;28;20524;-79
2022/11/10 12:32:41;;;;;;;2.63;1.35;;;15.70;99.90;;;;;;5019423;28;20049;-80
2022/11/10 12:35:17;;;;;;;2.08;1.00;;;15.70;99.90;;;;;;5014783;28;20125;-80
2022/11/10 12:38:07;;;;;;;3.70;1.40;;;15.80;99.90;;;;;;4999442;28;20049;-80
2022/11/10 12:40:49;;;;;;;3.17;0.98;;;15.80;99.90;;;;;;5035285;28;20052;-80
2022/11/10 12:43:41;;;;;;;3.63;1.08;;;15.90;99.90;;;;;;5019265;28;20142;-78
2022/11/10 12:46:09;;;;;;;4.30;1.52;;;15.90;99.90;;;;;;5033751;28;20053;-80
2022/11/10 12:48:59;;;;;;;3.00;1.20;;;15.90;99.90;;;;;;5018272;28;20103;-80
2022/11/10 12:51:44;;;;;;;3.08;1.00;;;15.90;99.90;;;;;;5021172;28;20152;-81
2022/11/10 12:54:12;;;;;;;1.88;0.82;;;15.90;99.90;;;;;;5001077;28;20054;-81
2022/11/10 12:56:43;;;;;;;3.05;1.10;;;15.90;99.90;;;;;;5015864;28;20064;-81
2022/11/10 12:59:19;;;;;;;3.65;1.30;;;15.90;99.90;;;;;;5022255;28;20053;-80
2022/11/10 13:01:48;;;;;;;2.65;1.08;;;15.90;99.90;;;;;;5035243;28;20160;-80
2022/11/10 13:04:16;;;;;;;3.17;1.10;;;15.90;99.90;;;;;;5017800;28;20293;-80
2022/11/10 13:06:47;;;;;;;2.38;1.02;;;15.90;99.90;;;;;;5032883;28;20157;-80
2022/11/10 13:09:21;;;;;;;3.25;1.30;;;15.80;99.90;;;;;;5018317;28;20120;-80
2022/11/10 13:12:22;;;;;;;5.03;1.52;;;15.80;99.90;;;;;;5034849;28;20156;-80
2022/11/10 13:14:49;;;;;;;3.47;1.25;;;15.80;99.90;;;;;;5034952;28;20049;-80
2022/11/10 13:17:39;;;;;;;3.08;1.33;;;15.90;99.90;;;;;;5018049;28;20413;-80
2022/11/10 13:20:26;;;;;;;3.58;1.10;;;15.90;99.90;;;;;;5032103;28;20459;-80
2022/11/10 13:22:57;;;;;;;3.05;0.90;;;15.90;99.90;;;;;;5033712;28;20076;-80